Time;durP1;ratioP1;P1;durP2;ratioP2;P2;SDS_P1;SDS_P2;PMS_P1;PMS_P2;Temp;Humidity;BMP_temperature;BMP_pressure;BME280_temperature;BME280_humidity;BME280_pressure;Samples;Min_cycle;Max_cycle;Signal;HPM_P1;HPM_P2
2022/05/02 00:00:32;;;;;;;12.98;9.25;;;11.50;99.90;;;;;;5084854;28;20108;-75
2022/05/02 00:02:58;;;;;;;10.57;8.55;;;11.40;99.90;;;;;;5075561;28;20448;-75
2022/05/02 00:05:24;;;;;;;11.27;8.68;;;11.50;99.90;;;;;;5071494;28;20027;-75
2022/05/02 00:07:50;;;;;;;10.77;8.63;;;11.50;99.90;;;;;;5072039;28;20017;-75
2022/05/02 00:10:16;;;;;;;11.27;8.35;;;11.40;99.90;;;;;;5078786;28;20013;-76
2022/05/02 00:12:42;;;;;;;11.88;8.50;;;11.40;99.90;;;;;;5069416;28;20093;-75
2022/05/02 00:15:08;;;;;;;10.68;8.38;;;11.40;99.90;;;;;;5086688;28;20028;-75
2022/05/02 00:20:18;;;;;;;11.77;7.68;;;11.30;99.90;;;;;;5083718;28;20054;-75
2022/05/02 00:22:44;;;;;;;11.43;8.20;;;11.20;99.90;;;;;;5066124;28;20552;-76
2022/05/02 00:25:12;;;;;;;13.30;9.63;;;11.20;99.90;;;;;;5086629;28;20469;-76
2022/05/02 00:27:39;;;;;;;11.23;8.77;;;11.20;99.90;;;;;;5062386;28;20039;-77
2022/05/02 00:30:06;;;;;;;10.20;8.35;;;11.20;99.90;;;;;;5084707;28;20024;-75
2022/05/02 00:32:32;;;;;;;11.20;7.80;;;11.20;99.90;;;;;;5077497;28;20021;-75
2022/05/02 00:34:58;;;;;;;8.95;7.95;;;11.20;99.90;;;;;;5079726;28;20157;-76
2022/05/02 00:37:23;;;;;;;9.40;8.13;;;11.30;99.90;;;;;;5083100;28;20031;-75
2022/05/02 00:39:49;;;;;;;10.25;7.75;;;11.30;99.90;;;;;;5096401;28;20022;-75
2022/05/02 00:42:14;;;;;;;10.25;7.93;;;11.30;99.90;;;;;;5061847;28;20078;-75
2022/05/02 00:44:42;;;;;;;12.05;7.78;;;11.40;99.90;;;;;;5064811;28;20025;-74
2022/05/02 00:47:08;;;;;;;11.10;7.88;;;11.30;99.90;;;;;;5051048;28;20123;-74
2022/05/02 00:49:35;;;;;;;10.95;7.72;;;11.30;99.90;;;;;;5064847;28;20025;-74
2022/05/02 00:52:01;;;;;;;10.25;7.82;;;11.30;99.90;;;;;;5060630;28;20058;-74
2022/05/02 00:54:26;;;;;;;8.30;7.38;;;11.40;99.90;;;;;;5061592;28;20102;-74
2022/05/02 00:56:54;;;;;;;9.73;7.25;;;11.40;99.90;;;;;;5065902;28;20149;-74
2022/05/02 00:59:21;;;;;;;11.75;8.10;;;11.40;99.90;;;;;;5070880;28;20036;-74
2022/05/02 01:01:47;;;;;;;11.65;7.88;;;11.40;99.90;;;;;;5074310;28;20039;-73
2022/05/02 01:04:12;;;;;;;9.63;7.50;;;11.40;99.90;;;;;;5072798;28;20040;-75
2022/05/02 01:07:20;;;;;;;7.88;7.05;;;11.40;99.90;;;;;;5063599;28;20028;-75
2022/05/02 01:09:27;;;;;;;9.80;7.57;;;11.40;99.90;;;;;;5054206;28;20101;-76
2022/05/02 01:11:55;;;;;;;9.85;7.63;;;11.30;99.90;;;;;;5072606;28;20024;-75
2022/05/02 01:14:20;;;;;;;9.98;7.80;;;11.30;99.90;;;;;;5069550;28;20056;-76
2022/05/02 01:16:46;;;;;;;10.13;7.68;;;11.20;99.90;;;;;;5072169;28;20060;-75
2022/05/02 01:19:12;;;;;;;12.02;7.63;;;11.20;99.90;;;;;;5073172;28;20138;-74
2022/05/02 01:21:38;;;;;;;8.93;6.95;;;11.20;99.90;;;;;;5074006;28;20021;-74
2022/05/02 01:24:04;;;;;;;8.73;7.43;;;11.30;99.90;;;;;;5069572;28;20020;-74
2022/05/02 01:26:30;;;;;;;12.32;7.53;;;11.30;99.90;;;;;;5065874;28;20482;-75
2022/05/02 01:28:58;;;;;;;8.18;6.90;;;11.20;99.90;;;;;;5074377;28;20020;-74
2022/05/02 01:31:24;;;;;;;11.75;7.50;;;11.10;99.90;;;;;;5089321;28;20025;-75
2022/05/02 01:33:51;;;;;;;10.13;7.25;;;11.10;99.90;;;;;;5067810;28;20028;-77
2022/05/02 01:36:19;;;;;;;9.80;7.32;;;11.10;99.90;;;;;;5066427;28;20032;-77
2022/05/02 01:38:45;;;;;;;9.13;6.97;;;11.20;99.90;;;;;;5059564;28;20115;-75
2022/05/02 01:41:11;;;;;;;11.60;8.02;;;11.20;99.90;;;;;;5061336;28;20059;-75
2022/05/02 01:43:38;;;;;;;10.13;6.35;;;11.20;99.90;;;;;;5067137;28;20064;-76
2022/05/02 01:46:05;;;;;;;9.35;6.70;;;11.20;99.90;;;;;;5072224;28;20020;-76
2022/05/02 01:48:31;;;;;;;7.10;6.40;;;11.30;99.90;;;;;;5060673;28;20458;-75
2022/05/02 01:50:58;;;;;;;9.73;7.30;;;11.20;99.90;;;;;;5060942;28;20025;-74
2022/05/02 01:53:23;;;;;;;8.07;6.93;;;11.20;99.90;;;;;;5067339;28;20028;-75
2022/05/02 01:55:49;;;;;;;8.18;6.75;;;11.20;99.90;;;;;;5066850;28;20393;-74
2022/05/02 01:58:15;;;;;;;8.02;7.20;;;11.10;99.90;;;;;;5060659;28;20040;-75
2022/05/02 02:00:40;;;;;;;11.20;6.88;;;11.10;99.90;;;;;;5073295;28;20029;-77
2022/05/02 02:03:06;;;;;;;9.52;7.57;;;11.10;99.90;;;;;;5067273;28;20554;-76
2022/05/02 02:05:50;;;;;;;9.02;7.10;;;11.10;99.90;;;;;;5064757;28;20437;-76
2022/05/02 02:08:20;;;;;;;9.95;7.50;;;11.10;99.90;;;;;;5065386;28;20445;-76
2022/05/02 02:10:47;;;;;;;10.27;7.00;;;11.10;99.90;;;;;;5066787;28;20125;-76
2022/05/02 02:13:13;;;;;;;10.95;7.85;;;11.10;99.90;;;;;;5062825;28;20039;-76
2022/05/02 02:15:39;;;;;;;20.38;7.45;;;11.10;99.90;;;;;;5071384;28;20034;-75
2022/05/02 02:18:05;;;;;;;12.38;7.30;;;11.10;99.90;;;;;;5062772;28;20024;-76
2022/05/02 02:20:31;;;;;;;11.68;7.18;;;11.10;99.90;;;;;;5059704;28;20032;-77
2022/05/02 02:22:57;;;;;;;9.27;7.10;;;11.10;99.90;;;;;;5064544;28;20025;-76
2022/05/02 02:25:23;;;;;;;9.48;7.03;;;11.10;99.90;;;;;;5066672;28;20028;-76
2022/05/02 02:27:48;;;;;;;10.35;7.50;;;11.10;99.90;;;;;;5061334;28;20036;-76
2022/05/02 02:30:14;;;;;;;11.35;6.97;;;11.10;99.90;;;;;;5056029;28;20013;-77
2022/05/02 02:32:41;;;;;;;12.07;7.88;;;11.00;99.90;;;;;;5053385;28;20075;-77
2022/05/02 02:35:07;;;;;;;9.60;7.70;;;11.00;99.90;;;;;;5066907;28;20028;-78
2022/05/02 02:37:33;;;;;;;8.30;7.40;;;11.00;99.90;;;;;;5062273;28;20032;-77
2022/05/02 02:39:58;;;;;;;11.45;7.93;;;10.90;99.90;;;;;;5059738;28;20029;-76
2022/05/02 02:42:24;;;;;;;11.13;7.68;;;10.90;99.90;;;;;;5063498;28;20033;-77
2022/05/02 02:44:50;;;;;;;9.45;7.97;;;10.90;99.90;;;;;;5053088;28;20025;-76
2022/05/02 02:47:16;;;;;;;10.38;7.50;;;10.90;99.90;;;;;;5062396;28;20029;-76
2022/05/02 02:49:41;;;;;;;9.57;7.60;;;10.80;99.90;;;;;;5059730;28;20036;-77
2022/05/02 02:52:08;;;;;;;10.27;7.32;;;10.80;99.90;;;;;;5062938;28;20032;-77
2022/05/02 02:54:34;;;;;;;9.80;7.60;;;10.80;99.90;;;;;;5065289;28;20039;-77
2022/05/02 02:56:59;;;;;;;12.23;7.95;;;10.70;99.90;;;;;;5062294;28;20378;-75
2022/05/02 02:59:25;;;;;;;11.68;7.50;;;10.70;99.90;;;;;;5062184;28;20378;-76
2022/05/02 03:01:50;;;;;;;7.90;7.07;;;10.60;99.90;;;;;;5072210;28;20024;-77
2022/05/02 03:07:00;;;;;;;8.27;7.35;;;10.60;99.90;;;;;;5064612;28;20141;-76
2022/05/02 03:09:27;;;;;;;11.32;7.57;;;10.60;99.90;;;;;;5059242;28;20107;-76
2022/05/02 03:11:53;;;;;;;8.77;7.75;;;10.50;99.90;;;;;;5060330;28;20025;-76
2022/05/02 03:14:18;;;;;;;11.27;7.63;;;10.50;99.90;;;;;;5065908;28;20021;-75
2022/05/02 03:16:44;;;;;;;10.32;7.70;;;10.50;99.90;;;;;;5062580;28;20036;-76
2022/05/02 03:19:09;;;;;;;10.20;7.40;;;10.50;99.90;;;;;;5059074;28;20028;-76
2022/05/02 03:21:35;;;;;;;11.43;7.82;;;10.40;99.90;;;;;;5060396;28;20090;-75
2022/05/02 03:24:00;;;;;;;12.50;7.80;;;10.40;99.90;;;;;;5065846;28;20032;-76
2022/05/02 03:26:26;;;;;;;9.65;8.05;;;10.40;99.90;;;;;;5063407;28;20024;-76
2022/05/02 03:28:51;;;;;;;8.85;7.70;;;10.30;99.90;;;;;;5057600;28;20025;-77
2022/05/02 03:31:16;;;;;;;12.50;8.13;;;10.20;99.90;;;;;;5060308;28;20044;-76
2022/05/02 03:33:42;;;;;;;12.10;8.50;;;10.20;99.90;;;;;;5065589;28;20104;-76
2022/05/02 03:36:07;;;;;;;10.32;8.40;;;10.10;99.90;;;;;;5067311;28;20033;-76
2022/05/02 03:38:33;;;;;;;12.13;9.10;;;9.90;99.90;;;;;;5057121;28;20035;-76
2022/05/02 03:40:58;;;;;;;15.55;11.45;;;9.80;99.90;;;;;;5070237;28;20157;-76
2022/05/02 03:43:24;;;;;;;28.88;17.40;;;9.70;99.90;;;;;;5058621;28;20044;-77
2022/05/02 03:45:49;;;;;;;20.38;14.05;;;9.50;99.90;;;;;;5059385;28;20029;-76
2022/05/02 03:48:15;;;;;;;13.05;9.93;;;9.40;99.90;;;;;;5064121;28;20532;-77
2022/05/02 03:50:40;;;;;;;14.93;10.50;;;9.30;99.90;;;;;;5062257;28;20032;-75
2022/05/02 03:53:08;;;;;;;20.52;11.82;;;9.10;99.90;;;;;;5067777;28;20048;-76
2022/05/02 03:55:33;;;;;;;14.88;11.18;;;9.20;99.90;;;;;;5061656;28;20143;-76
2022/05/02 03:57:59;;;;;;;17.83;11.60;;;9.20;99.90;;;;;;5071760;28;20494;-76
2022/05/02 04:00:24;;;;;;;16.23;10.32;;;9.20;99.90;;;;;;5069868;28;20482;-77
2022/05/02 04:02:50;;;;;;;16.35;11.00;;;9.10;99.90;;;;;;5066396;28;20025;-77
2022/05/02 04:05:15;;;;;;;17.55;12.68;;;9.20;99.90;;;;;;5062320;28;20082;-77
2022/05/02 04:07:41;;;;;;;17.33;13.45;;;9.00;99.90;;;;;;5058160;28;20025;-76
2022/05/02 04:10:07;;;;;;;23.17;14.38;;;9.00;99.90;;;;;;5070392;28;20032;-76
2022/05/02 04:12:40;;;;;;;20.15;13.77;;;8.70;99.90;;;;;;5056431;28;20024;-75
2022/05/02 04:15:07;;;;;;;18.17;13.55;;;8.80;99.90;;;;;;5058459;28;20025;-75
2022/05/02 04:17:33;;;;;;;18.10;12.60;;;8.80;99.90;;;;;;5063791;28;20112;-75
2022/05/02 04:19:58;;;;;;;17.45;12.73;;;8.70;99.90;;;;;;5062415;28;20085;-77
2022/05/02 04:22:24;;;;;;;21.48;14.95;;;8.70;99.90;;;;;;5057471;28;20493;-76
2022/05/02 04:24:49;;;;;;;22.10;14.50;;;8.60;99.90;;;;;;5059620;28;20082;-77
2022/05/02 04:27:15;;;;;;;18.92;12.98;;;8.60;99.90;;;;;;5071376;28;20055;-74
2022/05/02 04:29:40;;;;;;;21.60;15.77;;;8.60;99.90;;;;;;5062367;28;20390;-73
2022/05/02 04:32:06;;;;;;;19.98;15.65;;;8.60;99.90;;;;;;5068367;28;20029;-73
2022/05/02 04:34:31;;;;;;;15.98;12.43;;;8.90;99.90;;;;;;5054467;28;20033;-73
2022/05/02 04:36:57;;;;;;;14.18;12.18;;;8.90;99.90;;;;;;5068667;28;20033;-73
2022/05/02 04:39:22;;;;;;;14.85;11.57;;;8.90;99.90;;;;;;5054103;28;20452;-73
2022/05/02 04:41:48;;;;;;;21.95;16.23;;;9.00;99.90;;;;;;5054459;28;20522;-73
2022/05/02 04:44:13;;;;;;;21.25;15.68;;;9.00;99.90;;;;;;5055258;28;20028;-73
2022/05/02 04:46:39;;;;;;;17.27;13.60;;;9.10;99.90;;;;;;5073138;28;20039;-73
2022/05/02 04:49:04;;;;;;;20.65;16.45;;;9.20;99.90;;;;;;5063985;28;20052;-74
2022/05/02 04:51:30;;;;;;;17.52;15.00;;;9.20;99.90;;;;;;5054689;28;20406;-74
2022/05/02 04:53:55;;;;;;;19.35;13.23;;;9.20;99.90;;;;;;5065976;28;20021;-74
2022/05/02 04:56:21;;;;;;;18.25;13.68;;;9.30;99.90;;;;;;5069681;28;20029;-74
2022/05/02 04:58:46;;;;;;;15.43;12.85;;;9.30;99.90;;;;;;5065888;28;20033;-74
2022/05/02 05:01:12;;;;;;;18.40;13.43;;;9.30;99.90;;;;;;5073125;28;20052;-74
2022/05/02 05:03:38;;;;;;;19.05;11.82;;;9.40;99.90;;;;;;5073595;28;20024;-74
2022/05/02 05:06:03;;;;;;;14.13;11.75;;;9.50;99.90;;;;;;5060114;28;20107;-74
2022/05/02 05:08:29;;;;;;;18.33;12.20;;;9.40;99.90;;;;;;5064740;28;20021;-75
2022/05/02 05:11:03;;;;;;;16.65;11.75;;;9.40;99.90;;;;;;5068257;28;20116;-74
2022/05/02 05:17:02;;;;;;;17.58;11.73;;;9.70;99.90;;;;;;5063737;28;20109;-73
2022/05/02 05:19:43;;;;;;;18.42;12.25;;;9.70;99.90;;;;;;5073314;28;20487;-73
2022/05/02 05:22:18;;;;;;;15.02;10.85;;;9.80;99.90;;;;;;5059363;28;20247;-73
2022/05/02 05:24:52;;;;;;;10.35;8.48;;;9.90;99.90;;;;;;5064012;28;20095;-74
2022/05/02 05:27:45;;;;;;;11.85;9.25;;;10.00;99.90;;;;;;5071470;28;20390;-73
2022/05/02 05:30:11;;;;;;;10.43;8.55;;;10.20;99.90;;;;;;5060832;28;20028;-74
2022/05/02 05:33:14;;;;;;;9.43;7.97;;;10.30;99.90;;;;;;5072732;28;20021;-73
2022/05/02 05:35:44;;;;;;;10.40;8.18;;;10.50;99.90;;;;;;5072788;28;20029;-73
2022/05/02 05:38:30;;;;;;;12.68;8.85;;;10.50;99.90;;;;;;5058492;28;20028;-70
2022/05/02 05:41:02;;;;;;;;;;;10.60;99.90;;;;;;5022913;28;20122;-70
2022/05/02 05:43:57;;;;;;;11.55;8.50;;;10.70;99.90;;;;;;5067776;28;19911;-72
2022/05/02 05:46:44;;;;;;;10.35;8.65;;;10.70;99.90;;;;;;5052657;28;20033;-73
2022/05/02 05:49:34;;;;;;;13.25;9.35;;;10.60;99.90;;;;;;5054187;28;20097;-73
2022/05/02 05:52:19;;;;;;;10.98;8.68;;;10.70;99.90;;;;;;5060399;28;20146;-73
2022/05/02 05:55:00;;;;;;;11.55;9.95;;;10.80;99.90;;;;;;5069841;28;20044;-73
2022/05/02 05:57:35;;;;;;;11.20;9.13;;;10.70;99.90;;;;;;5053991;28;20478;-73
2022/05/02 06:00:06;;;;;;;10.02;9.00;;;10.80;99.90;;;;;;5062878;28;20032;-73
2022/05/02 06:02:49;;;;;;;12.20;9.45;;;10.70;99.90;;;;;;5073216;28;20371;-73
2022/05/02 06:05:16;;;;;;;13.23;9.15;;;10.70;99.90;;;;;;5073736;28;20027;-73
2022/05/02 06:07:43;;;;;;;10.32;8.93;;;10.60;99.90;;;;;;5070274;28;20016;-73
2022/05/02 06:10:09;;;;;;;11.48;8.65;;;10.60;99.90;;;;;;5073679;28;20021;-73
2022/05/02 06:12:36;;;;;;;12.60;9.15;;;10.70;99.90;;;;;;5058502;28;20020;-73
2022/05/02 06:20:36;;;;;;;10.10;8.75;;;10.80;99.90;;;;;;5053031;28;20044;-73
2022/05/02 06:23:02;;;;;;;10.45;8.90;;;10.80;99.90;;;;;;5052246;28;20037;-73
2022/05/02 06:25:33;;;;;;;11.38;9.23;;;10.90;99.90;;;;;;5052063;28;20086;-73
2022/05/02 06:28:01;;;;;;;10.82;8.43;;;11.10;99.90;;;;;;5061922;28;20082;-73
2022/05/02 06:30:29;;;;;;;10.27;8.65;;;11.20;99.90;;;;;;5068876;28;20585;-73
2022/05/02 06:32:58;;;;;;;11.75;8.73;;;11.40;99.90;;;;;;5053247;28;20552;-73
2022/05/02 06:35:31;;;;;;;9.15;8.23;;;11.50;99.90;;;;;;5070506;28;20073;-73
2022/05/02 06:38:11;;;;;;;9.70;8.27;;;11.50;99.90;;;;;;5073148;28;20067;-73
2022/05/02 06:40:58;;;;;;;9.50;8.00;;;11.50;99.90;;;;;;5058588;28;20025;-73
2022/05/02 06:43:32;;;;;;;9.98;8.25;;;11.50;99.90;;;;;;5060872;28;20048;-73
2022/05/02 06:46:16;;;;;;;9.82;8.13;;;11.60;99.90;;;;;;5071543;28;20071;-73
2022/05/02 06:48:45;;;;;;;11.30;7.95;;;11.70;99.90;;;;;;5061656;28;20017;-73
2022/05/02 06:51:20;;;;;;;11.52;7.90;;;11.80;99.90;;;;;;5051714;28;20493;-73
2022/05/02 06:54:23;;;;;;;10.73;8.30;;;11.90;99.90;;;;;;5052897;28;20029;-73
2022/05/02 06:57:07;;;;;;;10.93;7.80;;;11.90;99.90;;;;;;5052805;28;20039;-73
2022/05/02 06:59:43;;;;;;;9.68;7.93;;;12.00;99.90;;;;;;5065888;28;20074;-73
2022/05/02 07:02:33;;;;;;;9.50;8.25;;;12.00;99.90;;;;;;5069822;28;20028;-73
2022/05/02 07:05:05;;;;;;;11.57;8.23;;;11.80;99.90;;;;;;5052574;28;20029;-73
2022/05/02 07:07:52;;;;;;;16.33;12.20;;;11.80;99.90;;;;;;5064531;28;20021;-73
2022/05/02 07:10:32;;;;;;;8.98;7.97;;;11.90;99.90;;;;;;5051942;28;20099;-73
2022/05/02 07:13:02;;;;;;;10.70;8.20;;;11.90;99.90;;;;;;5059833;28;20021;-73
2022/05/02 07:15:49;;;;;;;12.35;9.13;;;11.90;99.90;;;;;;5069080;28;20020;-73
2022/05/02 07:18:56;;;;;;;12.77;9.50;;;12.00;99.90;;;;;;5062659;28;20020;-74
2022/05/02 07:22:01;;;;;;;9.00;8.10;;;12.20;99.90;;;;;;5059765;28;20020;-75
2022/05/02 07:25:04;;;;;;;10.38;7.70;;;12.30;99.90;;;;;;5072031;28;20120;-74
2022/05/02 07:27:58;;;;;;;9.77;7.72;;;12.60;99.90;;;;;;5055511;28;20072;-73
2022/05/02 07:30:24;;;;;;;9.43;7.57;;;12.70;99.90;;;;;;5067186;28;20570;-74
2022/05/02 07:32:51;;;;;;;9.38;7.72;;;12.90;99.90;;;;;;5070820;28;20482;-73
2022/05/02 07:35:17;;;;;;;12.70;8.52;;;13.10;99.90;;;;;;5070619;28;20040;-73
2022/05/02 07:37:45;;;;;;;13.52;9.70;;;13.00;99.90;;;;;;5070594;28;20036;-73
2022/05/02 07:40:13;;;;;;;10.18;7.50;;;13.10;99.90;;;;;;5053549;28;20052;-74
2022/05/02 07:42:40;;;;;;;9.07;6.65;;;13.10;99.90;;;;;;5051870;28;20021;-73
2022/05/02 07:45:10;;;;;;;8.23;7.28;;;13.20;99.90;;;;;;5051681;28;20116;-73
2022/05/02 07:47:40;;;;;;;9.68;7.40;;;13.20;99.90;;;;;;5051752;28;20021;-73
2022/05/02 07:50:06;;;;;;;10.05;8.20;;;13.20;99.90;;;;;;5051694;28;20032;-73
2022/05/02 07:52:36;;;;;;;8.88;7.55;;;13.40;99.90;;;;;;5049909;28;20394;-73
2022/05/02 07:55:03;;;;;;;8.82;6.90;;;13.50;99.90;;;;;;5071863;28;20020;-73
2022/05/02 07:57:32;;;;;;;10.90;6.75;;;13.50;99.90;;;;;;5056983;28;20025;-74
2022/05/02 08:00:00;;;;;;;10.73;7.13;;;13.70;99.90;;;;;;5061658;28;20078;-73
2022/05/02 08:02:26;;;;;;;8.48;7.15;;;13.90;99.90;;;;;;5068153;28;20166;-73
2022/05/02 08:04:53;;;;;;;8.43;6.30;;;14.10;99.90;;;;;;5050319;28;20025;-73
2022/05/02 08:07:33;;;;;;;8.90;6.70;;;14.30;99.90;;;;;;5062575;28;20367;-74
2022/05/02 08:10:25;;;;;;;10.10;6.35;;;14.50;99.90;;;;;;5050910;28;20032;-73
2022/05/02 08:12:50;;;;;;;9.25;6.63;;;14.70;99.90;;;;;;5058629;28;20024;-73
2022/05/02 08:15:23;;;;;;;7.97;6.40;;;14.80;99.90;;;;;;5058275;28;20028;-73
2022/05/02 08:18:07;;;;;;;7.55;5.97;;;14.80;99.90;;;;;;5059096;28;20039;-73
2022/05/02 08:20:45;;;;;;;7.30;5.88;;;14.90;99.90;;;;;;5067465;28;20025;-73
2022/05/02 08:29:26;;;;;;;9.20;5.75;;;15.30;99.90;;;;;;5058975;28;20108;-73
2022/05/02 08:32:07;;;;;;;7.50;6.15;;;15.30;99.90;;;;;;5054348;28;20028;-73
2022/05/02 08:34:38;;;;;;;7.55;5.80;;;15.40;99.90;;;;;;5051474;28;20021;-73
2022/05/02 08:37:22;;;;;;;8.95;6.43;;;15.40;99.90;;;;;;5064906;28;20025;-73
2022/05/02 08:40:01;;;;;;;10.07;6.50;;;15.60;99.90;;;;;;5051377;28;20386;-73
2022/05/02 08:43:04;;;;;;;7.90;5.88;;;15.60;99.90;;;;;;5050694;28;20044;-73
2022/05/02 08:46:00;;;;;;;8.50;6.25;;;15.60;99.90;;;;;;5056640;28;20041;-73
2022/05/02 08:52:03;;;;;;;8.13;6.10;;;15.50;99.90;;;;;;5070598;28;20107;-73
2022/05/02 08:54:49;;;;;;;8.15;5.57;;;15.50;99.90;;;;;;5069881;28;20421;-73
2022/05/02 08:57:18;;;;;;;9.30;6.10;;;15.90;99.90;;;;;;5069991;28;20031;-73
2022/05/02 09:00:12;;;;;;;7.75;5.97;;;16.20;99.90;;;;;;5070925;28;20055;-73
2022/05/02 09:03:08;;;;;;;7.22;5.88;;;16.20;99.90;;;;;;5054579;28;20041;-73
2022/05/02 09:05:58;;;;;;;6.90;5.82;;;16.20;99.90;;;;;;5051232;28;20033;-78
2022/05/02 09:08:45;;;;;;;7.63;5.72;;;16.10;99.90;;;;;;5051136;28;20032;-74
2022/05/02 09:11:33;;;;;;;6.75;5.07;;;16.00;99.90;;;;;;5068235;28;20025;-73
2022/05/02 09:14:19;;;;;;;8.10;5.43;;;16.10;99.90;;;;;;5073240;28;20024;-73
2022/05/02 09:17:17;;;;;;;7.50;5.60;;;16.10;99.90;;;;;;5063079;28;20483;-73
2022/05/02 09:20:01;;;;;;;7.45;5.57;;;16.30;99.90;;;;;;5063877;28;20064;-73
2022/05/02 09:22:38;;;;;;;9.82;5.70;;;16.60;99.90;;;;;;5074170;28;20031;-72
2022/05/02 09:25:10;;;;;;;8.77;5.60;;;16.70;99.90;;;;;;5074414;28;20078;-73
2022/05/02 09:27:41;;;;;;;9.02;6.30;;;16.60;99.90;;;;;;5054341;28;20025;-74
2022/05/02 09:30:39;;;;;;;10.52;6.00;;;16.70;99.90;;;;;;5054475;28;20029;-74
2022/05/02 09:33:26;;;;;;;7.50;5.63;;;16.80;99.90;;;;;;5031014;28;20029;-74
2022/05/02 09:35:53;;;;;;;6.55;5.32;;;16.90;99.90;;;;;;5063281;28;20024;-73
2022/05/02 09:38:25;;;;;;;7.18;5.57;;;17.10;99.90;;;;;;5074311;28;20016;-73
2022/05/02 09:41:00;;;;;;;8.27;6.32;;;17.40;99.90;;;;;;5063410;28;20025;-74
2022/05/02 09:49:37;;;;;;;7.88;6.50;;;17.90;99.90;;;;;;5074120;28;20031;-73
2022/05/02 09:52:25;;;;;;;7.80;5.78;;;17.90;99.90;;;;;;5062181;28;20477;-74
2022/05/02 09:58:05;;;;;;;7.50;5.80;;;17.80;99.90;;;;;;5070602;28;20075;-74
2022/05/02 10:01:06;;;;;;;7.45;5.85;;;17.80;99.90;;;;;;5066200;28;20032;-74
2022/05/02 10:03:37;;;;;;;7.68;5.50;;;18.20;99.90;;;;;;5064223;28;20524;-73
2022/05/02 10:06:29;;;;;;;7.25;5.80;;;18.10;99.90;;;;;;5057507;28;20029;-74
2022/05/02 10:09:17;;;;;;;7.57;5.70;;;17.60;99.90;;;;;;5044880;28;20486;-74
2022/05/02 10:11:51;;;;;;;8.02;5.65;;;18.10;99.90;;;;;;5073043;28;20021;-74
2022/05/02 10:14:41;;;;;;;10.93;6.38;;;18.30;99.90;;;;;;5055577;28;20032;-74
2022/05/02 10:17:08;;;;;;;6.95;5.75;;;18.60;99.90;;;;;;5053499;28;20021;-74
2022/05/02 10:19:54;;;;;;;7.85;5.38;;;18.90;99.90;;;;;;5052199;28;20021;-74
2022/05/02 10:22:29;;;;;;;8.82;6.15;;;19.10;99.90;;;;;;5052916;28;20032;-74
2022/05/02 10:25:07;;;;;;;7.05;5.63;;;18.80;99.90;;;;;;5052516;28;20024;-73
2022/05/02 10:27:52;;;;;;;5.40;4.90;;;18.40;99.90;;;;;;5089356;22;20048;-73
2022/05/02 10:30:18;;;;;;;7.80;5.85;;;18.10;99.90;;;;;;5088102;28;20024;-74
2022/05/02 10:32:50;;;;;;;6.28;5.00;;;17.90;99.90;;;;;;5093443;28;20169;-74
2022/05/02 10:35:21;;;;;;;5.53;4.85;;;18.50;99.90;;;;;;5076029;28;20043;-75
2022/05/02 10:38:02;;;;;;;6.85;5.57;;;18.90;99.90;;;;;;5071466;28;20032;-74
2022/05/02 10:40:29;;;;;;;7.93;4.85;;;19.30;99.90;;;;;;5059226;28;20035;-75
2022/05/02 10:42:57;;;;;;;5.20;4.70;;;19.50;99.90;;;;;;5073018;28;20025;-75
2022/05/02 10:45:26;;;;;;;6.63;5.00;;;19.60;99.90;;;;;;5071659;28;20021;-75
2022/05/02 10:47:56;;;;;;;8.95;5.60;;;19.80;99.90;;;;;;5073034;28;20012;-73
2022/05/02 10:50:32;;;;;;;6.05;5.10;;;19.70;99.90;;;;;;5071139;28;20020;-75
2022/05/02 10:53:03;;;;;;;7.03;5.13;;;19.30;99.90;;;;;;5072894;28;20035;-75
2022/05/02 10:55:33;;;;;;;7.47;5.10;;;19.40;99.90;;;;;;5072782;28;20511;-74
2022/05/02 10:58:05;;;;;;;8.50;5.15;;;19.60;99.90;;;;;;5072648;28;20039;-75
2022/05/02 11:00:31;;;;;;;10.02;5.25;;;20.00;99.90;;;;;;5072185;28;20062;-75
2022/05/02 11:03:12;;;;;;;8.35;5.25;;;20.50;99.90;;;;;;5072585;28;20040;-74
2022/05/02 11:06:11;;;;;;;6.38;4.75;;;20.50;99.90;;;;;;5072333;28;20025;-74
2022/05/02 11:08:50;;;;;;;5.28;4.78;;;20.60;99.90;;;;;;5064070;28;20032;-74
2022/05/02 11:11:50;;;;;;;6.70;4.78;;;20.00;99.90;;;;;;5058754;28;20028;-74
2022/05/02 11:14:28;;;;;;;5.43;4.53;;;19.90;99.90;;;;;;5071198;28;20020;-74
2022/05/02 11:17:26;;;;;;;5.10;4.18;;;19.60;99.90;;;;;;5072479;28;20028;-75
2022/05/02 11:23:24;;;;;;;6.80;4.90;;;19.50;99.90;;;;;;5072496;28;20039;-74
2022/05/02 11:26:11;;;;;;;4.95;4.53;;;20.10;99.90;;;;;;5072081;28;20065;-75
2022/05/02 11:28:54;;;;;;;8.82;5.13;;;20.80;99.90;;;;;;5071980;28;20036;-75
2022/05/02 11:31:32;;;;;;;6.13;4.80;;;20.30;99.90;;;;;;5067436;28;20126;-74
2022/05/02 11:34:34;;;;;;;7.65;5.22;;;19.80;98.70;;;;;;5070414;28;20017;-74
2022/05/02 11:37:00;;;;;;;5.85;4.85;;;20.00;99.90;;;;;;5070033;28;20078;-75
2022/05/02 11:39:56;;;;;;;9.00;5.10;;;20.20;99.40;;;;;;5070319;28;20401;-74
2022/05/02 11:42:22;;;;;;;5.25;4.75;;;20.10;99.90;;;;;;5058201;28;20024;-75
2022/05/02 11:45:14;;;;;;;7.03;4.97;;;19.80;99.90;;;;;;5069789;28;20432;-75
2022/05/02 11:47:39;;;;;;;8.73;5.03;;;19.90;99.80;;;;;;5071126;28;20020;-75
2022/05/02 11:50:07;;;;;;;5.82;5.03;;;20.00;99.90;;;;;;5071750;28;20028;-75
2022/05/02 11:52:40;;;;;;;7.72;4.80;;;20.20;99.90;;;;;;5070041;28;20024;-75
2022/05/02 11:55:08;;;;;;;7.35;5.10;;;20.20;99.90;;;;;;5071798;28;20172;-74
2022/05/02 11:57:39;;;;;;;5.03;4.53;;;20.30;99.90;;;;;;5070321;28;20135;-75
2022/05/02 12:00:11;;;;;;;7.60;4.97;;;20.00;99.90;;;;;;5071772;28;20032;-75
2022/05/02 12:02:37;;;;;;;6.30;4.90;;;19.70;99.90;;;;;;5071203;28;20021;-75
2022/05/02 12:05:16;;;;;;;5.00;4.50;;;19.80;99.90;;;;;;5071615;28;20029;-74
2022/05/02 12:07:49;;;;;;;7.32;4.43;;;19.90;99.90;;;;;;5070142;28;20504;-75
2022/05/02 12:10:16;;;;;;;5.40;4.30;;;19.60;99.90;;;;;;5071020;28;20028;-74
2022/05/02 12:12:50;;;;;;;6.03;4.70;;;19.60;99.90;;;;;;5070289;28;20016;-74
2022/05/02 12:15:16;;;;;;;8.00;4.60;;;19.40;99.90;;;;;;5071664;28;20432;-75
2022/05/02 12:18:03;;;;;;;6.30;4.57;;;19.30;99.90;;;;;;5071366;28;20021;-75
2022/05/02 12:20:39;;;;;;;5.55;4.65;;;18.90;99.90;;;;;;5070845;28;20020;-74
2022/05/02 12:23:15;;;;;;;7.72;4.65;;;18.90;99.90;;;;;;5071604;28;20044;-75
2022/05/02 12:25:54;;;;;;;10.43;4.78;;;18.60;99.90;;;;;;5071428;28;20029;-74
2022/05/02 12:28:38;;;;;;;5.20;4.70;;;18.90;99.90;;;;;;5071299;28;20024;-75
2022/05/02 12:31:06;;;;;;;6.47;4.28;;;19.00;99.90;;;;;;5070945;28;20090;-75
2022/05/02 12:33:33;;;;;;;13.95;4.68;;;19.30;99.90;;;;;;5071401;28;20108;-75
2022/05/02 12:35:59;;;;;;;8.10;4.70;;;19.40;99.90;;;;;;5071381;28;20024;-74
2022/05/02 12:38:28;;;;;;;6.22;4.15;;;19.60;99.90;;;;;;5071262;28;20021;-74
2022/05/02 12:41:01;;;;;;;8.38;4.60;;;20.00;99.90;;;;;;5070750;28;20025;-74
2022/05/02 12:43:38;;;;;;;9.23;4.32;;;20.90;99.90;;;;;;5071273;28;20511;-72
2022/05/02 12:46:09;;;;;;;4.90;4.32;;;21.40;98.80;;;;;;5058238;28;20017;-74
2022/05/02 12:48:39;;;;;;;5.03;4.50;;;22.00;99.60;;;;;;5059916;28;20117;-74
2022/05/02 12:51:07;;;;;;;5.13;4.53;;;21.70;97.20;;;;;;5073222;28;20078;-75
2022/05/02 12:56:18;;;;;;;115.95;11.52;;;22.00;98.50;;;;;;5072122;28;20039;-75
2022/05/02 13:01:44;;;;;;;5.97;3.90;;;21.80;98.60;;;;;;5068437;28;20034;-74
2022/05/02 13:04:18;;;;;;;6.95;4.53;;;21.40;97.80;;;;;;5073652;28;20040;-74
2022/05/02 13:06:45;;;;;;;6.10;4.57;;;22.40;94.90;;;;;;5064274;28;20085;-74
2022/05/02 13:09:14;;;;;;;6.22;4.20;;;22.70;95.70;;;;;;5074042;28;20016;-75
2022/05/02 13:11:40;;;;;;;5.38;4.45;;;22.40;96.30;;;;;;5072864;28;20146;-74
2022/05/02 13:14:06;;;;;;;5.57;4.57;;;21.80;97.60;;;;;;5074724;28;20044;-75
2022/05/02 13:16:41;;;;;;;5.82;4.22;;;21.60;96.60;;;;;;5074530;28;20032;-74
2022/05/02 13:19:07;;;;;;;6.07;4.70;;;21.80;97.40;;;;;;5073432;28;20033;-75
2022/05/02 13:21:33;;;;;;;8.23;5.25;;;21.60;96.90;;;;;;5074300;28;20033;-75
2022/05/02 13:24:07;;;;;;;73.68;9.68;;;21.10;97.70;;;;;;5074450;28;20087;-74
2022/05/02 13:26:37;;;;;;;7.78;5.05;;;21.40;97.30;;;;;;5073009;28;20047;-75
2022/05/02 13:29:38;;;;;;;5.85;4.07;;;21.40;97.80;;;;;;5073157;28;20568;-74
2022/05/02 13:32:10;;;;;;;4.97;4.05;;;21.00;98.20;;;;;;5073716;28;20501;-74
2022/05/02 13:35:00;;;;;;;6.70;4.57;;;20.50;98.50;;;;;;5062935;28;20554;-75
2022/05/02 13:37:32;;;;;;;5.43;4.25;;;20.10;98.00;;;;;;5060622;28;20051;-75
2022/05/02 13:40:10;;;;;;;5.97;3.90;;;20.50;98.20;;;;;;5074354;28;20036;-76
2022/05/02 13:43:11;;;;;;;5.43;4.72;;;22.00;97.50;;;;;;5074045;28;20409;-75
2022/05/02 13:45:54;;;;;;;6.15;4.45;;;23.50;95.90;;;;;;5062828;28;20386;-75
2022/05/02 13:48:26;;;;;;;5.82;4.78;;;25.30;94.90;;;;;;5074119;28;20024;-73
2022/05/02 13:51:08;;;;;;;6.72;4.80;;;24.70;92.60;;;;;;5073624;28;20025;-74
2022/05/02 13:54:02;;;;;;;7.43;4.80;;;25.10;92.50;;;;;;5061313;28;20020;-74